sensor_id;sensor_type;location;lat;lon;timestamp;temperature;humidity
14850;DHT22;7517;48.400;11.770;2023-06-14T00:02:00;18.80;48.10
14850;DHT22;7517;48.400;11.770;2023-06-14T00:04:27;18.80;48.10
14850;DHT22;7517;48.400;11.770;2023-06-14T00:06:55;18.80;48.20
14850;DHT22;7517;48.400;11.770;2023-06-14T00:09:23;18.70;48.20
14850;DHT22;7517;48.400;11.770;2023-06-14T00:11:50;18.70;48.30
14850;DHT22;7517;48.400;11.770;2023-06-14T00:14:19;18.70;48.30
14850;DHT22;7517;48.400;11.770;2023-06-14T00:16:47;18.60;48.40
14850;DHT22;7517;48.400;11.770;2023-06-14T00:19:14;18.60;48.40
14850;DHT22;7517;48.400;11.770;2023-06-14T00:21:41;18.60;48.30
14850;DHT22;7517;48.400;11.770;2023-06-14T00:24:09;18.60;48.40
14850;DHT22;7517;48.400;11.770;2023-06-14T00:26:36;18.50;48.50
14850;DHT22;7517;48.400;11.770;2023-06-14T00:29:04;18.50;48.70
14850;DHT22;7517;48.400;11.770;2023-06-14T00:31:33;18.50;48.90
14850;DHT22;7517;48.400;11.770;2023-06-14T00:34:00;18.40;49.00
14850;DHT22;7517;48.400;11.770;2023-06-14T00:36:29;18.40;49.10
14850;DHT22;7517;48.400;11.770;2023-06-14T00:38:56;18.40;49.20
14850;DHT22;7517;48.400;11.770;2023-06-14T00:41:23;18.40;49.20
14850;DHT22;7517;48.400;11.770;2023-06-14T00:43:51;18.30;49.20
14850;DHT22;7517;48.400;11.770;2023-06-14T00:46:21;18.30;49.20
14850;DHT22;7517;48.400;11.770;2023-06-14T00:48:50;18.30;49.30
14850;DHT22;7517;48.400;11.770;2023-06-14T00:51:18;18.30;49.50
14850;DHT22;7517;48.400;11.770;2023-06-14T00:53:45;18.20;49.40
14850;DHT22;7517;48.400;11.770;2023-06-14T00:56:13;18.20;49.50
14850;DHT22;7517;48.400;11.770;2023-06-14T00:58:41;18.20;49.50
14850;DHT22;7517;48.400;11.770;2023-06-14T01:01:10;18.20;49.60
14850;DHT22;7517;48.400;11.770;2023-06-14T01:03:37;18.10;49.50
14850;DHT22;7517;48.400;11.770;2023-06-14T01:06:15;18.10;49.60
14850;DHT22;7517;48.400;11.770;2023-06-14T01:09:00;18.00;50.40
14850;DHT22;7517;48.400;11.770;2023-06-14T01:11:36;18.00;49.90
14850;DHT22;7517;48.400;11.770;2023-06-14T01:14:08;18.00;49.70
14850;DHT22;7517;48.400;11.770;2023-06-14T01:16:38;18.00;49.70
14850;DHT22;7517;48.400;11.770;2023-06-14T01:19:11;17.90;49.90
14850;DHT22;7517;48.400;11.770;2023-06-14T01:21:40;17.90;50.20
14850;DHT22;7517;48.400;11.770;2023-06-14T01:24:09;17.90;50.10
14850;DHT22;7517;48.400;11.770;2023-06-14T01:26:38;17.80;50.10
14850;DHT22;7517;48.400;11.770;2023-06-14T01:29:11;17.80;50.20
14850;DHT22;7517;48.400;11.770;2023-06-14T01:31:42;17.80;50.20
14850;DHT22;7517;48.400;11.770;2023-06-14T01:34:11;17.70;50.30
14850;DHT22;7517;48.400;11.770;2023-06-14T01:36:41;17.70;50.50
14850;DHT22;7517;48.400;11.770;2023-06-14T01:39:14;17.70;50.70
14850;DHT22;7517;48.400;11.770;2023-06-14T01:41:42;17.60;50.80
14850;DHT22;7517;48.400;11.770;2023-06-14T01:44:13;17.60;50.90
14850;DHT22;7517;48.400;11.770;2023-06-14T01:46:42;17.60;51.00
14850;DHT22;7517;48.400;11.770;2023-06-14T01:49:11;17.60;51.10
14850;DHT22;7517;48.400;11.770;2023-06-14T01:51:46;17.60;51.10
14850;DHT22;7517;48.400;11.770;2023-06-14T01:54:15;17.50;51.10
14850;DHT22;7517;48.400;11.770;2023-06-14T01:56:42;17.50;51.20
14850;DHT22;7517;48.400;11.770;2023-06-14T01:59:10;17.50;51.30
14850;DHT22;7517;48.400;11.770;2023-06-14T02:01:37;17.50;51.40
14850;DHT22;7517;48.400;11.770;2023-06-14T02:04:05;17.50;51.60
14850;DHT22;7517;48.400;11.770;2023-06-14T02:06:32;17.50;51.60
14850;DHT22;7517;48.400;11.770;2023-06-14T02:09:00;17.40;51.70
14850;DHT22;7517;48.400;11.770;2023-06-14T02:11:30;17.40;51.70
14850;DHT22;7517;48.400;11.770;2023-06-14T02:13:58;17.40;51.70
14850;DHT22;7517;48.400;11.770;2023-06-14T02:16:27;17.40;51.80
14850;DHT22;7517;48.400;11.770;2023-06-14T02:18:55;17.40;51.90
14850;DHT22;7517;48.400;11.770;2023-06-14T02:21:22;17.30;52.00
14850;DHT22;7517;48.400;11.770;2023-06-14T02:23:50;17.30;52.10
14850;DHT22;7517;48.400;11.770;2023-06-14T02:26:17;17.30;52.20
14850;DHT22;7517;48.400;11.770;2023-06-14T02:28:46;17.20;52.30
14850;DHT22;7517;48.400;11.770;2023-06-14T02:31:14;17.20;52.40
14850;DHT22;7517;48.400;11.770;2023-06-14T02:33:41;17.20;52.30
14850;DHT22;7517;48.400;11.770;2023-06-14T02:36:09;17.10;52.40
14850;DHT22;7517;48.400;11.770;2023-06-14T02:38:36;17.10;52.40
14850;DHT22;7517;48.400;11.770;2023-06-14T02:41:03;17.00;52.40
14850;DHT22;7517;48.400;11.770;2023-06-14T02:43:31;17.00;52.50
14850;DHT22;7517;48.400;11.770;2023-06-14T02:46:00;17.00;52.60
14850;DHT22;7517;48.400;11.770;2023-06-14T02:48:27;17.00;52.60
14850;DHT22;7517;48.400;11.770;2023-06-14T02:50:55;16.90;52.50
14850;DHT22;7517;48.400;11.770;2023-06-14T02:53:22;16.90;52.40
14850;DHT22;7517;48.400;11.770;2023-06-14T02:55:50;16.90;52.90
14850;DHT22;7517;48.400;11.770;2023-06-14T02:58:18;16.80;52.40
14850;DHT22;7517;48.400;11.770;2023-06-14T03:00:45;16.80;52.40
14850;DHT22;7517;48.400;11.770;2023-06-14T03:03:14;16.70;52.30
14850;DHT22;7517;48.400;11.770;2023-06-14T03:05:44;16.70;52.60
14850;DHT22;7517;48.400;11.770;2023-06-14T03:08:13;16.70;52.80
14850;DHT22;7517;48.400;11.770;2023-06-14T03:10:42;16.60;52.70
14850;DHT22;7517;48.400;11.770;2023-06-14T03:13:10;16.60;52.80
14850;DHT22;7517;48.400;11.770;2023-06-14T03:15:37;16.60;52.90
14850;DHT22;7517;48.400;11.770;2023-06-14T03:18:07;16.60;53.00
14850;DHT22;7517;48.400;11.770;2023-06-14T03:20:36;16.60;52.90
14850;DHT22;7517;48.400;11.770;2023-06-14T03:23:04;16.60;53.00
14850;DHT22;7517;48.400;11.770;2023-06-14T03:25:32;16.60;53.00
14850;DHT22;7517;48.400;11.770;2023-06-14T03:28:01;16.50;53.00
14850;DHT22;7517;48.400;11.770;2023-06-14T03:30:29;16.50;53.00
14850;DHT22;7517;48.400;11.770;2023-06-14T03:32:57;16.50;53.10
14850;DHT22;7517;48.400;11.770;2023-06-14T03:35:26;16.50;53.00
14850;DHT22;7517;48.400;11.770;2023-06-14T03:37:56;16.50;52.90
14850;DHT22;7517;48.400;11.770;2023-06-14T03:40:23;16.50;53.10
14850;DHT22;7517;48.400;11.770;2023-06-14T03:42:53;16.50;53.00
14850;DHT22;7517;48.400;11.770;2023-06-14T03:45:20;16.50;53.00
14850;DHT22;7517;48.400;11.770;2023-06-14T03:47:48;16.40;53.10
14850;DHT22;7517;48.400;11.770;2023-06-14T03:50:17;16.40;53.10
14850;DHT22;7517;48.400;11.770;2023-06-14T03:52:46;16.40;53.20
14850;DHT22;7517;48.400;11.770;2023-06-14T03:55:17;16.40;53.20
14850;DHT22;7517;48.400;11.770;2023-06-14T03:57:46;16.40;53.30
14850;DHT22;7517;48.400;11.770;2023-06-14T04:00:14;16.40;53.30
14850;DHT22;7517;48.400;11.770;2023-06-14T04:02:41;16.40;53.30
14850;DHT22;7517;48.400;11.770;2023-06-14T04:05:09;16.40;53.30
14850;DHT22;7517;48.400;11.770;2023-06-14T04:07:37;16.40;53.30
14850;DHT22;7517;48.400;11.770;2023-06-14T04:10:06;16.40;53.40
14850;DHT22;7517;48.400;11.770;2023-06-14T04:12:36;16.50;53.50
14850;DHT22;7517;48.400;11.770;2023-06-14T04:15:04;16.50;53.50
14850;DHT22;7517;48.400;11.770;2023-06-14T04:17:33;16.50;53.60
14850;DHT22;7517;48.400;11.770;2023-06-14T04:20:02;16.50;53.70
14850;DHT22;7517;48.400;11.770;2023-06-14T04:22:31;16.50;53.60
14850;DHT22;7517;48.400;11.770;2023-06-14T04:25:02;16.50;53.70
14850;DHT22;7517;48.400;11.770;2023-06-14T04:27:31;16.50;53.90
14850;DHT22;7517;48.400;11.770;2023-06-14T04:30:04;16.60;54.00
14850;DHT22;7517;48.400;11.770;2023-06-14T04:32:33;16.60;54.10
14850;DHT22;7517;48.400;11.770;2023-06-14T04:35:05;16.60;54.00
14850;DHT22;7517;48.400;11.770;2023-06-14T04:37:34;16.70;54.10
14850;DHT22;7517;48.400;11.770;2023-06-14T04:40:06;16.70;54.00
14850;DHT22;7517;48.400;11.770;2023-06-14T04:42:34;16.70;54.00
14850;DHT22;7517;48.400;11.770;2023-06-14T04:45:05;16.80;54.10
14850;DHT22;7517;48.400;11.770;2023-06-14T04:47:33;16.80;54.10
14850;DHT22;7517;48.400;11.770;2023-06-14T04:50:03;16.80;53.90
14850;DHT22;7517;48.400;11.770;2023-06-14T04:52:31;16.80;53.90
14850;DHT22;7517;48.400;11.770;2023-06-14T04:54:58;16.90;53.90
14850;DHT22;7517;48.400;11.770;2023-06-14T04:57:25;16.90;54.10
14850;DHT22;7517;48.400;11.770;2023-06-14T04:59:53;16.90;54.10
14850;DHT22;7517;48.400;11.770;2023-06-14T05:02:23;17.00;54.20
14850;DHT22;7517;48.400;11.770;2023-06-14T05:04:51;17.00;54.40
14850;DHT22;7517;48.400;11.770;2023-06-14T05:07:19;17.00;54.30
14850;DHT22;7517;48.400;11.770;2023-06-14T05:09:49;17.10;54.20
14850;DHT22;7517;48.400;11.770;2023-06-14T05:12:16;17.10;54.30
14850;DHT22;7517;48.400;11.770;2023-06-14T05:14:44;17.10;54.30
14850;DHT22;7517;48.400;11.770;2023-06-14T05:17:11;17.20;54.20
14850;DHT22;7517;48.400;11.770;2023-06-14T05:19:41;17.20;54.20
14850;DHT22;7517;48.400;11.770;2023-06-14T05:22:09;17.30;54.30
14850;DHT22;7517;48.400;11.770;2023-06-14T05:24:36;17.30;54.20
14850;DHT22;7517;48.400;11.770;2023-06-14T05:27:03;17.30;54.20
14850;DHT22;7517;48.400;11.770;2023-06-14T05:29:31;17.30;54.20
14850;DHT22;7517;48.400;11.770;2023-06-14T05:31:59;17.40;54.20
14850;DHT22;7517;48.400;11.770;2023-06-14T05:34:26;17.40;54.30
14850;DHT22;7517;48.400;11.770;2023-06-14T05:36:55;17.40;54.20
14850;DHT22;7517;48.400;11.770;2023-06-14T05:39:22;17.50;54.20
14850;DHT22;7517;48.400;11.770;2023-06-14T05:41:50;17.60;54.70
14850;DHT22;7517;48.400;11.770;2023-06-14T05:44:18;17.60;54.00
14850;DHT22;7517;48.400;11.770;2023-06-14T05:46:45;17.60;54.10
14850;DHT22;7517;48.400;11.770;2023-06-14T05:49:12;17.70;53.90
14850;DHT22;7517;48.400;11.770;2023-06-14T05:51:39;17.70;53.50
14850;DHT22;7517;48.400;11.770;2023-06-14T05:54:08;17.80;53.60
14850;DHT22;7517;48.400;11.770;2023-06-14T05:56:35;17.90;53.40
14850;DHT22;7517;48.400;11.770;2023-06-14T05:59:03;17.90;53.50
14850;DHT22;7517;48.400;11.770;2023-06-14T06:01:30;17.90;53.70
14850;DHT22;7517;48.400;11.770;2023-06-14T06:03:59;18.00;53.40
14850;DHT22;7517;48.400;11.770;2023-06-14T06:06:26;18.10;53.30
14850;DHT22;7517;48.400;11.770;2023-06-14T06:08:54;18.10;53.20
14850;DHT22;7517;48.400;11.770;2023-06-14T06:11:23;18.20;53.30
14850;DHT22;7517;48.400;11.770;2023-06-14T06:13:50;18.30;53.00
14850;DHT22;7517;48.400;11.770;2023-06-14T06:16:17;18.30;52.90
14850;DHT22;7517;48.400;11.770;2023-06-14T06:18:45;18.40;52.90
14850;DHT22;7517;48.400;11.770;2023-06-14T06:21:12;18.50;53.00
14850;DHT22;7517;48.400;11.770;2023-06-14T06:23:39;18.50;52.90
14850;DHT22;7517;48.400;11.770;2023-06-14T06:26:09;18.60;53.00
14850;DHT22;7517;48.400;11.770;2023-06-14T06:28:38;18.70;52.90
14850;DHT22;7517;48.400;11.770;2023-06-14T06:31:07;18.70;52.60
14850;DHT22;7517;48.400;11.770;2023-06-14T06:33:35;18.80;52.70
14850;DHT22;7517;48.400;11.770;2023-06-14T06:36:06;18.90;52.60
14850;DHT22;7517;48.400;11.770;2023-06-14T06:38:34;19.00;52.60
14850;DHT22;7517;48.400;11.770;2023-06-14T06:41:02;19.00;52.60
14850;DHT22;7517;48.400;11.770;2023-06-14T06:43:38;19.10;52.60
14850;DHT22;7517;48.400;11.770;2023-06-14T06:46:05;19.20;52.60
14850;DHT22;7517;48.400;11.770;2023-06-14T06:48:33;19.30;52.70
14850;DHT22;7517;48.400;11.770;2023-06-14T06:51:01;19.30;52.80
14850;DHT22;7517;48.400;11.770;2023-06-14T06:53:28;19.40;52.60
14850;DHT22;7517;48.400;11.770;2023-06-14T06:55:56;19.50;52.30
14850;DHT22;7517;48.400;11.770;2023-06-14T06:58:24;19.70;52.20
14850;DHT22;7517;48.400;11.770;2023-06-14T07:00:54;19.80;52.10
14850;DHT22;7517;48.400;11.770;2023-06-14T07:03:21;19.90;52.10
14850;DHT22;7517;48.400;11.770;2023-06-14T07:05:49;20.10;51.90
14850;DHT22;7517;48.400;11.770;2023-06-14T07:08:16;20.20;51.90
14850;DHT22;7517;48.400;11.770;2023-06-14T07:10:43;20.40;51.90
14850;DHT22;7517;48.400;11.770;2023-06-14T07:13:12;20.60;51.60
14850;DHT22;7517;48.400;11.770;2023-06-14T07:15:39;20.80;51.30
14850;DHT22;7517;48.400;11.770;2023-06-14T07:18:08;20.90;51.10
14850;DHT22;7517;48.400;11.770;2023-06-14T07:20:35;21.10;51.00
14850;DHT22;7517;48.400;11.770;2023-06-14T07:23:03;21.30;50.70
14850;DHT22;7517;48.400;11.770;2023-06-14T07:25:31;21.40;50.50
14850;DHT22;7517;48.400;11.770;2023-06-14T07:27:59;21.60;50.20
14850;DHT22;7517;48.400;11.770;2023-06-14T07:30:27;21.80;49.80
14850;DHT22;7517;48.400;11.770;2023-06-14T07:32:55;21.90;49.50
14850;DHT22;7517;48.400;11.770;2023-06-14T07:35:27;22.10;49.60
14850;DHT22;7517;48.400;11.770;2023-06-14T07:37:58;22.20;49.40
14850;DHT22;7517;48.400;11.770;2023-06-14T07:40:27;22.40;49.30
14850;DHT22;7517;48.400;11.770;2023-06-14T07:42:54;22.50;48.80
14850;DHT22;7517;48.400;11.770;2023-06-14T07:45:24;22.70;48.70
14850;DHT22;7517;48.400;11.770;2023-06-14T07:47:52;22.80;48.20
14850;DHT22;7517;48.400;11.770;2023-06-14T07:50:22;23.00;47.90
14850;DHT22;7517;48.400;11.770;2023-06-14T07:52:51;23.10;47.80
14850;DHT22;7517;48.400;11.770;2023-06-14T07:55:19;23.20;47.60
14850;DHT22;7517;48.400;11.770;2023-06-14T07:57:51;23.40;47.80
14850;DHT22;7517;48.400;11.770;2023-06-14T08:00:20;23.50;47.60
14850;DHT22;7517;48.400;11.770;2023-06-14T08:02:48;23.60;47.20
14850;DHT22;7517;48.400;11.770;2023-06-14T08:05:16;23.80;47.10
14850;DHT22;7517;48.400;11.770;2023-06-14T08:07:43;23.90;46.90
14850;DHT22;7517;48.400;11.770;2023-06-14T08:10:13;24.10;46.90
14850;DHT22;7517;48.400;11.770;2023-06-14T08:12:41;24.20;46.50
14850;DHT22;7517;48.400;11.770;2023-06-14T08:15:09;24.30;46.40
14850;DHT22;7517;48.400;11.770;2023-06-14T08:17:37;24.40;46.10
14850;DHT22;7517;48.400;11.770;2023-06-14T08:20:07;24.50;46.20
14850;DHT22;7517;48.400;11.770;2023-06-14T08:22:36;24.60;46.20
14850;DHT22;7517;48.400;11.770;2023-06-14T08:25:04;24.60;46.00
14850;DHT22;7517;48.400;11.770;2023-06-14T08:27:34;24.70;45.70
14850;DHT22;7517;48.400;11.770;2023-06-14T08:30:01;24.80;45.80
14850;DHT22;7517;48.400;11.770;2023-06-14T08:32:30;24.90;45.80
14850;DHT22;7517;48.400;11.770;2023-06-14T08:34:57;24.90;45.80
14850;DHT22;7517;48.400;11.770;2023-06-14T08:37:25;25.00;45.90
14850;DHT22;7517;48.400;11.770;2023-06-14T08:39:53;25.10;45.90
14850;DHT22;7517;48.400;11.770;2023-06-14T08:42:24;25.20;45.80
14850;DHT22;7517;48.400;11.770;2023-06-14T08:44:53;25.30;45.50
14850;DHT22;7517;48.400;11.770;2023-06-14T08:47:21;25.40;45.40
14850;DHT22;7517;48.400;11.770;2023-06-14T08:49:51;25.50;45.30
14850;DHT22;7517;48.400;11.770;2023-06-14T08:52:23;25.70;45.20
14850;DHT22;7517;48.400;11.770;2023-06-14T08:54:56;25.80;44.60
14850;DHT22;7517;48.400;11.770;2023-06-14T08:57:25;26.00;44.20
14850;DHT22;7517;48.400;11.770;2023-06-14T08:59:57;26.10;43.90
14850;DHT22;7517;48.400;11.770;2023-06-14T09:02:27;26.30;43.80
14850;DHT22;7517;48.400;11.770;2023-06-14T09:04:54;26.40;43.80
14850;DHT22;7517;48.400;11.770;2023-06-14T09:07:27;26.50;43.60
14850;DHT22;7517;48.400;11.770;2023-06-14T09:10:07;26.70;43.20
14850;DHT22;7517;48.400;11.770;2023-06-14T09:12:38;26.90;42.40
14850;DHT22;7517;48.400;11.770;2023-06-14T09:15:08;27.00;42.60
14850;DHT22;7517;48.400;11.770;2023-06-14T09:17:37;27.20;42.40
14850;DHT22;7517;48.400;11.770;2023-06-14T09:20:07;27.40;42.00
14850;DHT22;7517;48.400;11.770;2023-06-14T09:22:36;27.60;41.60
14850;DHT22;7517;48.400;11.770;2023-06-14T09:25:04;27.70;41.10
14850;DHT22;7517;48.400;11.770;2023-06-14T09:27:33;27.90;41.00
14850;DHT22;7517;48.400;11.770;2023-06-14T09:30:02;28.10;40.80
14850;DHT22;7517;48.400;11.770;2023-06-14T09:32:36;28.30;40.60
14850;DHT22;7517;48.400;11.770;2023-06-14T09:35:05;28.50;39.70
14850;DHT22;7517;48.400;11.770;2023-06-14T09:37:34;28.70;39.70
14850;DHT22;7517;48.400;11.770;2023-06-14T09:40:04;28.90;39.30
14850;DHT22;7517;48.400;11.770;2023-06-14T09:42:32;29.10;39.30
14850;DHT22;7517;48.400;11.770;2023-06-14T09:45:03;29.40;39.00
14850;DHT22;7517;48.400;11.770;2023-06-14T09:47:33;29.50;38.50
14850;DHT22;7517;48.400;11.770;2023-06-14T09:50:01;29.80;38.80
14850;DHT22;7517;48.400;11.770;2023-06-14T09:52:28;30.10;38.70
14850;DHT22;7517;48.400;11.770;2023-06-14T09:55:01;30.30;38.20
14850;DHT22;7517;48.400;11.770;2023-06-14T09:57:41;30.70;37.90
14850;DHT22;7517;48.400;11.770;2023-06-14T10:00:13;31.00;37.60
14850;DHT22;7517;48.400;11.770;2023-06-14T10:02:47;31.30;36.70
14850;DHT22;7517;48.400;11.770;2023-06-14T10:05:21;31.60;36.30
14850;DHT22;7517;48.400;11.770;2023-06-14T10:07:55;31.90;36.50
14850;DHT22;7517;48.400;11.770;2023-06-14T10:10:26;32.20;36.10
14850;DHT22;7517;48.400;11.770;2023-06-14T10:12:54;32.40;35.50
14850;DHT22;7517;48.400;11.770;2023-06-14T10:15:30;32.60;35.20
14850;DHT22;7517;48.400;11.770;2023-06-14T10:18:09;32.70;33.90
14850;DHT22;7517;48.400;11.770;2023-06-14T10:20:51;32.80;33.50
14850;DHT22;7517;48.400;11.770;2023-06-14T10:23:31;32.90;34.30
14850;DHT22;7517;48.400;11.770;2023-06-14T10:26:02;32.90;34.50
14850;DHT22;7517;48.400;11.770;2023-06-14T10:28:29;33.00;34.50
14850;DHT22;7517;48.400;11.770;2023-06-14T10:31:05;33.00;34.40
14850;DHT22;7517;48.400;11.770;2023-06-14T10:33:36;33.00;33.80
14850;DHT22;7517;48.400;11.770;2023-06-14T10:39:01;33.10;34.00
14850;DHT22;7517;48.400;11.770;2023-06-14T10:41:36;33.10;33.30
14850;DHT22;7517;48.400;11.770;2023-06-14T10:44:40;33.10;33.40
14850;DHT22;7517;48.400;11.770;2023-06-14T10:47:10;33.10;33.40
14850;DHT22;7517;48.400;11.770;2023-06-14T10:49:51;33.00;33.30
14850;DHT22;7517;48.400;11.770;2023-06-14T10:52:25;33.00;33.30
14850;DHT22;7517;48.400;11.770;2023-06-14T10:55:06;32.90;33.00
14850;DHT22;7517;48.400;11.770;2023-06-14T10:57:41;32.90;32.50
14850;DHT22;7517;48.400;11.770;2023-06-14T11:00:12;32.80;32.30
14850;DHT22;7517;48.400;11.770;2023-06-14T11:06:15;32.50;31.70
14850;DHT22;7517;48.400;11.770;2023-06-14T11:09:20;32.30;31.90
14850;DHT22;7517;48.400;11.770;2023-06-14T11:12:04;32.00;31.90
14850;DHT22;7517;48.400;11.770;2023-06-14T11:14:36;31.70;32.30
14850;DHT22;7517;48.400;11.770;2023-06-14T11:17:04;31.50;32.70
14850;DHT22;7517;48.400;11.770;2023-06-14T11:19:32;31.30;33.00
14850;DHT22;7517;48.400;11.770;2023-06-14T11:22:00;31.10;33.10
14850;DHT22;7517;48.400;11.770;2023-06-14T11:24:28;30.90;33.10
14850;DHT22;7517;48.400;11.770;2023-06-14T11:26:56;30.70;33.10
14850;DHT22;7517;48.400;11.770;2023-06-14T11:29:24;30.50;33.10
14850;DHT22;7517;48.400;11.770;2023-06-14T11:31:51;30.40;33.60
14850;DHT22;7517;48.400;11.770;2023-06-14T11:34:19;30.20;33.70
14850;DHT22;7517;48.400;11.770;2023-06-14T11:36:47;30.10;33.70
14850;DHT22;7517;48.400;11.770;2023-06-14T11:39:16;29.90;33.70
14850;DHT22;7517;48.400;11.770;2023-06-14T11:41:44;29.80;34.10
14850;DHT22;7517;48.400;11.770;2023-06-14T11:44:12;29.60;34.90
14850;DHT22;7517;48.400;11.770;2023-06-14T11:46:40;29.40;34.70
14850;DHT22;7517;48.400;11.770;2023-06-14T11:49:08;29.30;35.20
14850;DHT22;7517;48.400;11.770;2023-06-14T11:51:36;29.20;34.60
14850;DHT22;7517;48.400;11.770;2023-06-14T11:54:06;29.00;34.90
14850;DHT22;7517;48.400;11.770;2023-06-14T11:56:36;28.90;34.60
14850;DHT22;7517;48.400;11.770;2023-06-14T11:59:04;28.80;35.00
14850;DHT22;7517;48.400;11.770;2023-06-14T12:01:35;28.80;34.90
14850;DHT22;7517;48.400;11.770;2023-06-14T12:04:05;28.70;34.60
14850;DHT22;7517;48.400;11.770;2023-06-14T12:06:32;28.60;34.80
14850;DHT22;7517;48.400;11.770;2023-06-14T12:09:03;28.60;35.40
14850;DHT22;7517;48.400;11.770;2023-06-14T12:11:35;28.60;34.70
14850;DHT22;7517;48.400;11.770;2023-06-14T12:14:04;28.50;34.50
14850;DHT22;7517;48.400;11.770;2023-06-14T12:16:33;28.50;34.70
14850;DHT22;7517;48.400;11.770;2023-06-14T12:19:08;28.50;35.20
14850;DHT22;7517;48.400;11.770;2023-06-14T12:21:39;28.50;34.60
14850;DHT22;7517;48.400;11.770;2023-06-14T12:24:07;28.50;34.50
14850;DHT22;7517;48.400;11.770;2023-06-14T12:26:39;28.50;34.00
14850;DHT22;7517;48.400;11.770;2023-06-14T12:29:07;28.60;34.70
14850;DHT22;7517;48.400;11.770;2023-06-14T12:31:35;28.60;34.00
14850;DHT22;7517;48.400;11.770;2023-06-14T12:34:03;28.60;33.40
14850;DHT22;7517;48.400;11.770;2023-06-14T12:36:33;28.70;33.30
14850;DHT22;7517;48.400;11.770;2023-06-14T12:39:05;28.70;33.30
14850;DHT22;7517;48.400;11.770;2023-06-14T12:41:33;28.70;33.30
14850;DHT22;7517;48.400;11.770;2023-06-14T12:44:04;28.70;33.50
14850;DHT22;7517;48.400;11.770;2023-06-14T12:46:31;28.70;33.40
14850;DHT22;7517;48.400;11.770;2023-06-14T12:48:59;28.70;33.70
14850;DHT22;7517;48.400;11.770;2023-06-14T12:51:26;28.70;33.80
14850;DHT22;7517;48.400;11.770;2023-06-14T12:53:54;28.80;34.10
14850;DHT22;7517;48.400;11.770;2023-06-14T12:56:21;28.80;34.00
14850;DHT22;7517;48.400;11.770;2023-06-14T12:58:49;28.80;34.20
14850;DHT22;7517;48.400;11.770;2023-06-14T13:01:18;28.80;34.30
14850;DHT22;7517;48.400;11.770;2023-06-14T13:03:46;28.80;34.30
14850;DHT22;7517;48.400;11.770;2023-06-14T13:06:13;28.80;34.20
14850;DHT22;7517;48.400;11.770;2023-06-14T13:08:41;28.80;34.30
14850;DHT22;7517;48.400;11.770;2023-06-14T13:11:08;28.80;34.20
14850;DHT22;7517;48.400;11.770;2023-06-14T13:13:36;28.70;33.90
14850;DHT22;7517;48.400;11.770;2023-06-14T13:16:03;28.70;34.20
14850;DHT22;7517;48.400;11.770;2023-06-14T13:18:32;28.70;33.60
14850;DHT22;7517;48.400;11.770;2023-06-14T13:21:00;28.70;33.70
14850;DHT22;7517;48.400;11.770;2023-06-14T13:23:28;28.60;34.00
14850;DHT22;7517;48.400;11.770;2023-06-14T13:25:55;28.60;34.10
14850;DHT22;7517;48.400;11.770;2023-06-14T13:28:23;28.60;34.40
14850;DHT22;7517;48.400;11.770;2023-06-14T13:30:50;28.60;33.90
14850;DHT22;7517;48.400;11.770;2023-06-14T13:33:17;28.60;33.70
14850;DHT22;7517;48.400;11.770;2023-06-14T13:35:48;28.50;33.60
14850;DHT22;7517;48.400;11.770;2023-06-14T13:38:18;28.50;33.20
14850;DHT22;7517;48.400;11.770;2023-06-14T13:40:46;28.50;33.40
14850;DHT22;7517;48.400;11.770;2023-06-14T13:43:13;28.50;32.90
14850;DHT22;7517;48.400;11.770;2023-06-14T13:45:42;28.50;33.10
14850;DHT22;7517;48.400;11.770;2023-06-14T13:48:09;28.50;33.30
14850;DHT22;7517;48.400;11.770;2023-06-14T13:50:37;28.40;33.40
14850;DHT22;7517;48.400;11.770;2023-06-14T13:53:06;28.40;33.40
14850;DHT22;7517;48.400;11.770;2023-06-14T13:55:33;28.40;33.50
14850;DHT22;7517;48.400;11.770;2023-06-14T13:58:00;28.30;33.70
14850;DHT22;7517;48.400;11.770;2023-06-14T14:00:28;28.30;33.60
14850;DHT22;7517;48.400;11.770;2023-06-14T14:02:56;28.30;33.60
14850;DHT22;7517;48.400;11.770;2023-06-14T14:05:25;28.20;33.50
14850;DHT22;7517;48.400;11.770;2023-06-14T14:07:55;28.20;33.30
14850;DHT22;7517;48.400;11.770;2023-06-14T14:10:25;28.10;33.20
14850;DHT22;7517;48.400;11.770;2023-06-14T14:12:52;28.10;33.40
14850;DHT22;7517;48.400;11.770;2023-06-14T14:15:20;28.10;33.50
14850;DHT22;7517;48.400;11.770;2023-06-14T14:17:47;28.00;33.60
14850;DHT22;7517;48.400;11.770;2023-06-14T14:20:15;28.00;33.70
14850;DHT22;7517;48.400;11.770;2023-06-14T14:22:43;28.00;33.90
14850;DHT22;7517;48.400;11.770;2023-06-14T14:25:11;27.90;34.00
14850;DHT22;7517;48.400;11.770;2023-06-14T14:27:41;27.90;33.80
14850;DHT22;7517;48.400;11.770;2023-06-14T14:30:09;27.90;33.60
14850;DHT22;7517;48.400;11.770;2023-06-14T14:32:37;27.90;34.10
14850;DHT22;7517;48.400;11.770;2023-06-14T14:35:05;27.90;34.20
14850;DHT22;7517;48.400;11.770;2023-06-14T14:37:33;27.90;34.30
14850;DHT22;7517;48.400;11.770;2023-06-14T14:40:01;27.90;34.20
14850;DHT22;7517;48.400;11.770;2023-06-14T14:42:29;28.00;34.20
14850;DHT22;7517;48.400;11.770;2023-06-14T14:44:57;27.90;34.00
14850;DHT22;7517;48.400;11.770;2023-06-14T14:47:25;27.90;33.90
14850;DHT22;7517;48.400;11.770;2023-06-14T14:49:52;27.90;34.20
14850;DHT22;7517;48.400;11.770;2023-06-14T14:52:20;27.90;34.20
14850;DHT22;7517;48.400;11.770;2023-06-14T14:54:47;27.90;34.30
14850;DHT22;7517;48.400;11.770;2023-06-14T14:57:14;27.90;34.50
14850;DHT22;7517;48.400;11.770;2023-06-14T14:59:42;27.80;34.40
14850;DHT22;7517;48.400;11.770;2023-06-14T15:02:10;27.90;34.40
14850;DHT22;7517;48.400;11.770;2023-06-14T15:04:39;27.80;34.40
14850;DHT22;7517;48.400;11.770;2023-06-14T15:07:06;27.80;34.90
14850;DHT22;7517;48.400;11.770;2023-06-14T15:09:33;27.90;35.10
14850;DHT22;7517;48.400;11.770;2023-06-14T15:12:01;27.90;35.10
14850;DHT22;7517;48.400;11.770;2023-06-14T15:14:28;27.90;34.50
14850;DHT22;7517;48.400;11.770;2023-06-14T15:16:55;27.90;34.60
14850;DHT22;7517;48.400;11.770;2023-06-14T15:19:25;27.90;34.60
14850;DHT22;7517;48.400;11.770;2023-06-14T15:21:52;27.90;34.70
14850;DHT22;7517;48.400;11.770;2023-06-14T15:24:20;27.90;35.00
14850;DHT22;7517;48.400;11.770;2023-06-14T15:26:47;28.00;34.60
14850;DHT22;7517;48.400;11.770;2023-06-14T15:29:15;28.00;34.50
14850;DHT22;7517;48.400;11.770;2023-06-14T15:31:42;28.00;34.30
14850;DHT22;7517;48.400;11.770;2023-06-14T15:34:10;28.00;34.40
14850;DHT22;7517;48.400;11.770;2023-06-14T15:36:38;28.00;34.30
14850;DHT22;7517;48.400;11.770;2023-06-14T15:39:06;28.00;34.30
14850;DHT22;7517;48.400;11.770;2023-06-14T15:41:33;27.90;34.20
14850;DHT22;7517;48.400;11.770;2023-06-14T15:44:01;27.90;34.20
14850;DHT22;7517;48.400;11.770;2023-06-14T15:46:28;27.80;34.40
14850;DHT22;7517;48.400;11.770;2023-06-14T15:48:55;27.80;34.70